createdAt,value
2019-01-10T00:00:16.655Z,2.40
2019-01-10T00:02:45.429Z,2.40
2019-01-10T00:05:14.470Z,2.40
2019-01-10T00:07:43.119Z,2.40
2019-01-10T00:10:14.311Z,2.40
2019-01-10T00:12:43.054Z,2.50
2019-01-10T00:15:18.790Z,2.50
2019-01-10T00:17:49.986Z,2.40
2019-01-10T00:20:18.409Z,2.40
2019-01-10T00:22:47.054Z,2.40
2019-01-10T00:25:15.806Z,2.40
2019-01-10T00:27:44.422Z,2.40
2019-01-10T00:30:16.110Z,2.40
2019-01-10T00:32:44.719Z,2.40
2019-01-10T00:35:13.541Z,2.50
2019-01-10T00:37:42.155Z,2.40
2019-01-10T00:40:13.578Z,2.50
2019-01-10T00:42:49.048Z,2.50
2019-01-10T00:45:15.537Z,2.50
2019-01-10T00:47:44.261Z,2.50
2019-01-10T00:50:18.632Z,2.50
2019-01-10T00:52:47.285Z,2.60
2019-01-10T00:55:15.877Z,2.50
2019-01-10T00:57:44.563Z,2.50
2019-01-10T01:00:21.730Z,2.40
2019-01-10T01:02:50.514Z,2.40
2019-01-10T01:05:19.442Z,2.40
2019-01-10T01:07:48.119Z,2.40
2019-01-10T01:10:19.056Z,2.40
2019-01-10T01:12:47.724Z,2.40
2019-01-10T01:15:18.062Z,2.40
2019-01-10T01:17:46.589Z,2.40
2019-01-10T01:20:17.732Z,2.40
2019-01-10T01:22:46.663Z,2.40
2019-01-10T01:25:15.403Z,2.30
2019-01-10T01:27:44.003Z,2.40
2019-01-10T01:30:15.486Z,2.30
2019-01-10T01:32:44.198Z,2.40
2019-01-10T01:35:13.191Z,2.30
2019-01-10T01:37:41.766Z,2.40
2019-01-10T01:40:13.470Z,2.50
2019-01-10T01:42:42.049Z,2.40
2019-01-10T01:45:12.119Z,2.50
2019-01-10T01:47:40.791Z,2.40
2019-01-10T01:50:12.980Z,2.40
2019-01-10T01:52:41.527Z,2.50
2019-01-10T01:55:10.361Z,2.50
2019-01-10T01:57:38.898Z,2.50
2019-01-10T02:00:13.051Z,2.50
2019-01-10T02:02:41.749Z,2.50
2019-01-10T02:05:10.468Z,2.50
2019-01-10T02:07:39.065Z,2.40
2019-01-10T02:10:11.079Z,2.50
2019-01-10T02:12:39.690Z,2.50
2019-01-10T02:15:08.399Z,2.40
2019-01-10T02:17:37.008Z,2.40
2019-01-10T02:20:08.519Z,2.40
2019-01-10T02:22:38.593Z,2.40
2019-01-10T02:25:09.947Z,2.30
2019-01-10T02:27:38.637Z,2.40
2019-01-10T02:30:12.894Z,2.40
2019-01-10T02:32:41.535Z,2.40
2019-01-10T02:35:10.714Z,2.40
2019-01-10T02:37:39.295Z,2.50
2019-01-10T02:40:09.277Z,2.50
2019-01-10T02:42:37.923Z,2.50
2019-01-10T02:45:09.902Z,2.50
2019-01-10T02:47:38.435Z,2.50
2019-01-10T02:50:17.690Z,2.50
2019-01-10T02:52:46.302Z,2.40
2019-01-10T02:55:15.018Z,2.50
2019-01-10T02:57:43.657Z,2.40
2019-01-10T03:00:15.681Z,2.50
2019-01-10T03:02:44.283Z,2.50
2019-01-10T03:05:13.064Z,2.40
2019-01-10T03:07:41.605Z,2.50
2019-01-10T03:10:13.341Z,2.50
2019-01-10T03:12:42.019Z,2.50
2019-01-10T03:15:10.690Z,2.40
2019-01-10T03:17:39.277Z,2.50
2019-01-10T03:20:11.535Z,2.60
2019-01-10T03:22:40.199Z,2.50
2019-01-10T03:25:09.387Z,2.50
2019-01-10T03:27:37.919Z,2.50
2019-01-10T03:30:15.135Z,2.50
2019-01-10T03:32:44.606Z,2.40
2019-01-10T03:35:13.316Z,2.40
2019-01-10T03:37:41.970Z,2.50
2019-01-10T03:40:16.311Z,2.50
2019-01-10T03:42:44.912Z,2.40
2019-01-10T03:45:15.744Z,2.60
2019-01-10T03:47:44.269Z,2.60
2019-01-10T03:50:14.542Z,2.60
2019-01-10T03:52:43.187Z,2.50
2019-01-10T03:55:11.859Z,2.50
2019-01-10T03:57:40.435Z,2.50
2019-01-10T04:00:14.706Z,2.60
2019-01-10T04:02:43.371Z,2.50
2019-01-10T04:05:12.045Z,2.50
2019-01-10T04:07:40.859Z,2.50
2019-01-10T04:10:11.274Z,2.50
2019-01-10T04:12:39.812Z,2.60
2019-01-10T04:15:09.834Z,2.50
2019-01-10T04:17:38.370Z,2.40
2019-01-10T04:20:09.296Z,2.40
2019-01-10T04:22:37.831Z,2.50
2019-01-10T04:25:07.545Z,2.50
2019-01-10T04:27:36.230Z,2.40
2019-01-10T04:30:07.845Z,2.40
2019-01-10T04:32:36.365Z,2.40
2019-01-10T04:35:05.735Z,2.40
2019-01-10T04:37:34.196Z,2.40
2019-01-10T04:40:02.948Z,2.40
2019-01-10T04:42:31.549Z,2.40
2019-01-10T04:45:00.166Z,2.40
2019-01-10T04:47:28.696Z,2.40
2019-01-10T04:49:57.263Z,2.40
2019-01-10T04:52:25.806Z,2.40
2019-01-10T04:54:56.138Z,2.30
2019-01-10T04:57:24.558Z,2.40
2019-01-10T04:59:53.140Z,2.40
2019-01-10T05:02:21.675Z,2.30
2019-01-10T05:04:50.327Z,2.30
2019-01-10T05:07:18.930Z,2.30
2019-01-10T05:09:47.520Z,2.30
2019-01-10T05:12:16.056Z,2.30
2019-01-10T05:14:44.629Z,2.30
2019-01-10T05:17:13.205Z,2.30
2019-01-10T05:19:41.741Z,2.20
2019-01-10T05:22:10.316Z,2.30
2019-01-10T05:24:38.861Z,2.30
2019-01-10T05:27:07.437Z,2.20
2019-01-10T05:29:35.905Z,2.10
2019-01-10T05:32:04.517Z,2.10
2019-01-10T05:34:33.102Z,2.20
2019-01-10T05:37:01.630Z,2.20
2019-01-10T05:39:30.205Z,2.10
2019-01-10T05:41:58.735Z,2.00
2019-01-10T05:44:27.398Z,2.10
2019-01-10T05:46:55.930Z,2.00
2019-01-10T05:49:24.402Z,2.00
2019-01-10T05:51:52.971Z,2.20
2019-01-10T05:54:21.557Z,2.10
2019-01-10T05:56:50.134Z,2.10
2019-01-10T05:59:18.672Z,2.20
2019-01-10T06:01:47.133Z,2.20
2019-01-10T06:04:15.707Z,2.20
2019-01-10T06:06:44.247Z,2.10
2019-01-10T06:09:12.830Z,2.10
2019-01-10T06:11:41.555Z,2.20
2019-01-10T06:14:10.099Z,2.20
2019-01-10T06:16:38.630Z,2.30
2019-01-10T06:19:07.202Z,2.10
2019-01-10T06:21:35.741Z,2.10
2019-01-10T06:24:04.447Z,2.10
2019-01-10T06:26:33.127Z,2.10
2019-01-10T06:29:01.695Z,2.20
2019-01-10T06:31:30.279Z,2.20
2019-01-10T06:33:58.851Z,2.20
2019-01-10T06:36:27.442Z,2.30
2019-01-10T06:38:55.982Z,2.10
2019-01-10T06:41:24.547Z,2.10
2019-01-10T06:43:53.144Z,2.20
2019-01-10T06:46:21.675Z,2.20
2019-01-10T06:48:50.277Z,2.20
2019-01-10T06:51:18.848Z,2.10
2019-01-10T06:53:47.387Z,2.10
2019-01-10T06:56:15.984Z,2.00
2019-01-10T06:58:44.623Z,2.10
2019-01-10T07:01:13.181Z,2.20
2019-01-10T07:03:41.765Z,2.20
2019-01-10T07:06:10.263Z,2.30
2019-01-10T07:08:38.843Z,2.30
2019-01-10T07:11:07.389Z,2.10
2019-01-10T07:13:35.979Z,2.10
2019-01-10T07:16:04.614Z,2.20
2019-01-10T07:18:33.242Z,2.20
2019-01-10T07:21:01.779Z,2.20
2019-01-10T07:23:30.358Z,2.20
2019-01-10T07:25:59.051Z,2.30
2019-01-10T07:28:27.613Z,2.30
2019-01-10T07:30:56.389Z,2.40
2019-01-10T07:33:24.920Z,2.30
2019-01-10T07:35:55.144Z,2.20
2019-01-10T07:38:23.747Z,2.20
2019-01-10T07:40:52.743Z,2.30
2019-01-10T07:43:22.562Z,2.20
2019-01-10T07:45:51.184Z,2.20
2019-01-10T07:48:19.759Z,2.20
2019-01-10T07:50:48.319Z,2.20
2019-01-10T07:53:17.039Z,2.30
2019-01-10T07:55:45.619Z,2.30
2019-01-10T07:58:14.148Z,2.40
2019-01-10T08:00:42.866Z,2.30
2019-01-10T08:03:11.393Z,2.30
2019-01-10T08:05:40.025Z,2.30
2019-01-10T08:08:08.841Z,2.30
2019-01-10T08:10:37.475Z,2.30
2019-01-10T08:13:06.151Z,2.20
2019-01-10T08:15:34.725Z,2.20
2019-01-10T08:18:03.321Z,2.40
2019-01-10T08:20:31.817Z,2.40
2019-01-10T08:23:00.276Z,2.40
2019-01-10T08:25:28.873Z,2.40
2019-01-10T08:27:57.459Z,2.30
2019-01-10T08:30:26.123Z,2.30
2019-01-10T08:32:54.778Z,2.30
2019-01-10T08:35:24.077Z,2.40
2019-01-10T08:37:52.610Z,2.40
2019-01-10T08:40:21.187Z,2.60
2019-01-10T08:42:49.713Z,2.40
2019-01-10T08:45:21.910Z,2.40
2019-01-10T08:47:48.602Z,2.50
2019-01-10T08:50:22.397Z,2.50
2019-01-10T08:52:51.003Z,2.50
2019-01-10T08:55:19.663Z,2.40
2019-01-10T08:57:48.197Z,2.30
2019-01-10T09:00:18.969Z,2.40
2019-01-10T09:02:47.613Z,2.40
2019-01-10T09:05:16.279Z,2.40
2019-01-10T09:07:44.927Z,2.60
2019-01-10T09:10:22.149Z,2.50
2019-01-10T09:12:50.808Z,2.60
2019-01-10T09:15:25.363Z,2.60
2019-01-10T09:17:49.696Z,2.60
2019-01-10T09:20:18.294Z,2.60
2019-01-10T09:22:46.800Z,2.70
2019-01-10T09:25:17.658Z,2.80
2019-01-10T09:27:45.726Z,2.90
2019-01-10T09:30:17.105Z,2.90
2019-01-10T09:32:45.698Z,3.00
2019-01-10T09:35:14.326Z,3.10
2019-01-10T09:37:42.999Z,3.00
2019-01-10T09:40:14.666Z,3.00
2019-01-10T09:42:43.266Z,3.10
2019-01-10T09:45:14.568Z,2.90
2019-01-10T09:47:43.141Z,3.00
2019-01-10T09:50:14.682Z,3.10
2019-01-10T09:52:43.269Z,2.90
2019-01-10T09:55:12.103Z,3.00
2019-01-10T09:57:40.674Z,3.10
2019-01-10T10:00:12.277Z,3.00
2019-01-10T10:02:40.841Z,3.00
2019-01-10T10:05:09.434Z,2.90
2019-01-10T10:07:40.405Z,2.90
2019-01-10T10:10:14.698Z,2.90
2019-01-10T10:12:43.339Z,3.00
2019-01-10T10:15:12.801Z,3.00
2019-01-10T10:17:41.522Z,3.00
2019-01-10T10:20:21.538Z,3.10
2019-01-10T10:22:50.196Z,3.20
2019-01-10T10:25:18.725Z,3.20
2019-01-10T10:27:47.321Z,3.10
2019-01-10T10:30:18.133Z,3.10
2019-01-10T10:32:46.734Z,3.20
2019-01-10T10:35:15.637Z,3.10
2019-01-10T10:37:44.089Z,3.10
2019-01-10T10:40:17.740Z,3.00
2019-01-10T10:42:46.813Z,3.00
2019-01-10T10:45:17.426Z,3.00
2019-01-10T10:47:45.959Z,3.00
2019-01-10T10:50:17.301Z,2.90
2019-01-10T10:52:45.946Z,2.90
2019-01-10T10:55:14.620Z,2.80
2019-01-10T10:57:43.338Z,2.80
2019-01-10T11:00:20.491Z,2.90
2019-01-10T11:02:49.090Z,3.00
2019-01-10T11:05:17.594Z,3.00
2019-01-10T11:07:46.130Z,3.00
2019-01-10T11:10:17.816Z,3.00
2019-01-10T11:12:46.550Z,3.10
2019-01-10T11:15:15.182Z,3.10
2019-01-10T11:17:43.759Z,3.00
2019-01-10T11:20:15.338Z,3.10
2019-01-10T11:22:44.233Z,3.10
2019-01-10T11:25:18.191Z,3.00
2019-01-10T11:27:46.862Z,3.00
2019-01-10T11:30:18.043Z,3.10
2019-01-10T11:32:46.744Z,3.10
2019-01-10T11:35:15.883Z,2.90
2019-01-10T11:37:44.401Z,2.90
2019-01-10T11:40:15.871Z,3.00
2019-01-10T11:42:44.583Z,3.00
2019-01-10T11:45:15.960Z,3.00
2019-01-10T11:47:44.657Z,2.90
2019-01-10T11:50:15.341Z,3.00
2019-01-10T11:52:44.217Z,3.00
2019-01-10T11:55:12.911Z,3.00
2019-01-10T11:57:41.556Z,3.00
2019-01-10T12:00:15.731Z,3.00
2019-01-10T12:02:44.371Z,2.80
2019-01-10T12:05:12.938Z,2.60
2019-01-10T12:07:41.468Z,2.60
2019-01-10T12:10:11.490Z,2.60
2019-01-10T12:12:40.030Z,2.80
2019-01-10T12:15:10.802Z,2.90
2019-01-10T12:17:39.369Z,2.90
2019-01-10T12:20:11.116Z,2.80
2019-01-10T12:22:39.709Z,2.90
2019-01-10T12:25:10.912Z,2.80
2019-01-10T12:27:39.620Z,2.80
2019-01-10T12:30:11.164Z,3.00
2019-01-10T12:32:39.730Z,3.10
2019-01-10T12:35:08.830Z,3.00
2019-01-10T12:37:37.404Z,3.10
2019-01-10T12:40:11.293Z,3.00
2019-01-10T12:42:39.938Z,3.00
2019-01-10T12:45:11.201Z,3.10
2019-01-10T12:47:39.858Z,3.10
2019-01-10T12:50:14.553Z,3.10
2019-01-10T12:52:43.058Z,2.80
2019-01-10T12:55:11.721Z,2.70
2019-01-10T12:57:40.179Z,2.60
2019-01-10T13:00:11.827Z,2.70
2019-01-10T13:02:40.578Z,2.70
2019-01-10T13:05:09.313Z,2.90
2019-01-10T13:07:37.852Z,2.80
2019-01-10T13:10:10.530Z,2.90
2019-01-10T13:12:38.986Z,2.90
2019-01-10T13:15:12.755Z,2.80
2019-01-10T13:17:41.398Z,2.60
2019-01-10T13:20:11.712Z,2.70
2019-01-10T13:22:40.345Z,2.80
2019-01-10T13:25:14.120Z,2.70
2019-01-10T13:27:42.770Z,2.70
2019-01-10T13:30:19.626Z,2.80
2019-01-10T13:32:48.345Z,2.80
2019-01-10T13:35:16.943Z,2.70
2019-01-10T13:37:45.394Z,2.70
2019-01-10T13:40:15.875Z,2.70
2019-01-10T13:42:44.582Z,2.80
2019-01-10T13:45:14.691Z,2.60
2019-01-10T13:47:45.237Z,2.60
2019-01-10T13:50:17.682Z,2.60
2019-01-10T13:52:46.348Z,2.70
2019-01-10T13:55:17.101Z,2.60
2019-01-10T13:57:45.770Z,2.60
2019-01-10T14:00:17.692Z,2.60
2019-01-10T14:02:46.286Z,2.50
2019-01-10T14:05:14.886Z,2.50
2019-01-10T14:07:43.538Z,2.50
2019-01-10T14:10:14.906Z,2.50
2019-01-10T14:12:43.492Z,2.40
2019-01-10T14:15:19.826Z,2.40
2019-01-10T14:17:48.438Z,2.40
2019-01-10T14:20:17.168Z,2.30
2019-01-10T14:22:45.986Z,2.40
2019-01-10T14:25:15.288Z,2.30
2019-01-10T14:27:43.926Z,2.40
2019-01-10T14:30:15.674Z,2.50
2019-01-10T14:32:44.212Z,2.50
2019-01-10T14:35:12.745Z,2.50
2019-01-10T14:37:41.318Z,2.60
2019-01-10T14:40:11.681Z,2.70
2019-01-10T14:42:40.250Z,2.60
2019-01-10T14:45:14.411Z,2.40
2019-01-10T14:47:42.983Z,2.40
2019-01-10T14:50:12.242Z,2.30
2019-01-10T14:52:40.847Z,2.50
2019-01-10T14:55:12.457Z,2.40
2019-01-10T14:57:41.178Z,2.50
2019-01-10T15:00:15.514Z,2.50
2019-01-10T15:02:44.226Z,2.50
2019-01-10T15:05:34.648Z,2.50
2019-01-10T15:08:02.389Z,2.50
2019-01-10T15:10:30.980Z,2.30
2019-01-10T15:12:59.580Z,2.30
2019-01-10T15:15:28.251Z,2.30
2019-01-10T15:17:56.817Z,2.20
2019-01-10T15:20:27.386Z,2.30
2019-01-10T15:22:56.024Z,2.20
2019-01-10T15:25:24.558Z,2.30
2019-01-10T15:27:53.134Z,2.20
2019-01-10T15:30:23.830Z,2.20
2019-01-10T15:32:52.486Z,2.20
2019-01-10T15:35:21.187Z,2.20
2019-01-10T15:37:49.784Z,2.10
2019-01-10T15:40:23.923Z,1.90
2019-01-10T15:42:52.459Z,2.00
2019-01-10T15:45:21.101Z,2.10
2019-01-10T15:47:49.766Z,2.10
2019-01-10T15:50:19.606Z,2.10
2019-01-10T15:52:48.221Z,2.10
2019-01-10T15:55:19.637Z,1.90
2019-01-10T15:57:48.307Z,1.80
2019-01-10T16:00:19.397Z,1.90
2019-01-10T16:02:48.067Z,2.00
2019-01-10T16:05:16.818Z,1.80
2019-01-10T16:07:45.364Z,1.80
2019-01-10T16:10:15.755Z,1.70
2019-01-10T16:12:44.407Z,1.80
2019-01-10T16:15:15.647Z,1.80
2019-01-10T16:17:45.297Z,1.80
2019-01-10T16:20:14.807Z,1.70
2019-01-10T16:22:43.914Z,1.90
2019-01-10T16:25:14.621Z,1.90
2019-01-10T16:27:43.222Z,1.80
2019-01-10T16:30:20.558Z,1.80
2019-01-10T16:32:49.235Z,1.70
2019-01-10T16:35:17.813Z,1.80
2019-01-10T16:37:46.481Z,1.70
2019-01-10T16:40:16.909Z,1.70
2019-01-10T16:42:45.433Z,1.80
2019-01-10T16:45:20.785Z,1.60
2019-01-10T16:47:49.317Z,1.60
2019-01-10T16:50:17.919Z,1.60
2019-01-10T16:52:46.486Z,1.70
2019-01-10T16:55:15.482Z,1.60
2019-01-10T16:57:44.048Z,1.60
2019-01-10T17:00:18.616Z,1.60
2019-01-10T17:02:47.185Z,1.70
2019-01-10T17:05:15.789Z,1.60
2019-01-10T17:07:44.358Z,1.60
2019-01-10T17:10:13.025Z,1.60
2019-01-10T17:12:41.522Z,1.70
2019-01-10T17:15:11.822Z,1.80
2019-01-10T17:17:40.463Z,1.70
2019-01-10T17:20:20.858Z,1.80
2019-01-10T17:22:49.584Z,1.60
2019-01-10T17:25:18.665Z,1.60
2019-01-10T17:27:47.474Z,1.70
2019-01-10T17:30:26.287Z,1.70
2019-01-10T17:32:54.934Z,1.60
2019-01-10T17:35:29.295Z,1.70
2019-01-10T17:37:58.066Z,1.60
2019-01-10T17:40:27.338Z,1.50
2019-01-10T17:42:55.989Z,1.60
2019-01-10T17:45:29.528Z,1.40
2019-01-10T17:47:58.445Z,1.60
2019-01-10T17:50:26.973Z,1.50
2019-01-10T17:52:55.538Z,1.50
2019-01-10T17:55:23.999Z,1.50
2019-01-10T17:57:52.643Z,1.60
2019-01-10T18:00:26.127Z,1.60
2019-01-10T18:02:54.764Z,1.50
2019-01-10T18:05:23.414Z,1.30
2019-01-10T18:07:51.983Z,1.40
2019-01-10T18:10:22.191Z,1.40
2019-01-10T18:12:50.718Z,1.30
2019-01-10T18:15:24.510Z,1.40
2019-01-10T18:17:53.418Z,1.30
2019-01-10T18:20:27.766Z,1.40
2019-01-10T18:22:56.554Z,1.30
2019-01-10T18:25:25.266Z,1.20
2019-01-10T18:27:53.891Z,1.30
2019-01-10T18:30:23.974Z,1.00
2019-01-10T18:32:52.669Z,1.10
2019-01-10T18:35:26.013Z,1.00
2019-01-10T18:37:52.951Z,0.80
2019-01-10T18:40:21.653Z,0.70
2019-01-10T18:42:50.359Z,0.60
2019-01-10T18:45:24.561Z,0.50
2019-01-10T18:47:56.939Z,0.50
2019-01-10T18:50:24.727Z,0.50
2019-01-10T18:52:53.428Z,0.50
2019-01-10T18:55:22.022Z,0.60
2019-01-10T18:57:50.582Z,0.60
2019-01-10T19:00:27.287Z,0.60
2019-01-10T19:02:56.386Z,0.60
2019-01-10T19:05:25.149Z,0.50
2019-01-10T19:07:53.780Z,0.40
2019-01-10T19:10:23.350Z,0.30
2019-01-10T19:12:52.044Z,0.20
2019-01-10T19:15:21.163Z,0.10
2019-01-10T19:17:49.745Z,0.10
2019-01-10T19:20:20.642Z,0.00
2019-01-10T19:22:49.342Z,0.10
2019-01-10T19:25:17.803Z,0.10
2019-01-10T19:27:46.411Z,0.10
2019-01-10T19:30:23.473Z,0.20
2019-01-10T19:32:52.107Z,0.20
2019-01-10T19:35:20.786Z,0.20
2019-01-10T19:37:49.857Z,0.30
2019-01-10T19:40:20.661Z,0.30
2019-01-10T19:42:49.228Z,0.30
2019-01-10T19:45:19.834Z,0.30
2019-01-10T19:47:48.470Z,0.40
2019-01-10T19:50:19.718Z,0.30
2019-01-10T19:52:48.513Z,0.10
2019-01-10T19:55:18.735Z,0.00
2019-01-10T19:57:47.548Z,0.10
2019-01-10T20:00:19.395Z,0.10
2019-01-10T20:02:48.143Z,0.10
2019-01-10T20:05:16.774Z,0.10
2019-01-10T20:07:45.317Z,0.10
2019-01-10T20:10:15.636Z,0.10
2019-01-10T20:12:44.305Z,0.00
2019-01-10T20:15:13.018Z,0.00
2019-01-10T20:17:41.548Z,0.00
2019-01-10T20:20:28.148Z,0.10
2019-01-10T20:22:57.855Z,0.10
2019-01-10T20:25:26.599Z,0.30
2019-01-10T20:27:55.278Z,0.20
2019-01-10T20:30:23.980Z,0.20
2019-01-10T20:32:52.519Z,0.20
2019-01-10T20:35:21.159Z,0.20
2019-01-10T20:37:49.758Z,0.30
2019-01-10T20:40:19.462Z,0.30
2019-01-10T20:42:48.072Z,0.40
2019-01-10T20:45:17.374Z,0.50
2019-01-10T20:47:46.052Z,0.40
2019-01-10T20:50:18.395Z,0.40
2019-01-10T20:52:47.071Z,0.40
2019-01-10T20:55:17.792Z,0.40
2019-01-10T20:57:46.399Z,0.30
2019-01-10T21:00:24.221Z,0.40
2019-01-10T21:02:52.842Z,0.40
2019-01-10T21:05:21.419Z,0.30
2019-01-10T21:07:50.606Z,0.30
2019-01-10T21:10:20.906Z,0.30
2019-01-10T21:12:49.955Z,0.30
2019-01-10T21:15:27.008Z,0.30
2019-01-10T21:17:55.715Z,0.30
2019-01-10T21:20:24.495Z,0.30
2019-01-10T21:22:53.345Z,0.40
2019-01-10T21:25:22.024Z,0.30
2019-01-10T21:27:50.694Z,0.20
2019-01-10T21:30:23.838Z,0.30
2019-01-10T21:32:52.414Z,0.30
2019-01-10T21:35:21.260Z,0.50
2019-01-10T21:37:50.135Z,0.50
2019-01-10T21:40:23.804Z,0.60
2019-01-10T21:42:53.444Z,0.50
2019-01-10T21:45:22.417Z,0.50
2019-01-10T21:47:51.054Z,0.70
2019-01-10T21:50:24.838Z,0.60
2019-01-10T21:52:54.057Z,0.60
2019-01-10T21:55:22.805Z,0.70
2019-01-10T21:57:51.451Z,0.70
2019-01-10T22:00:25.465Z,0.70
2019-01-10T22:02:54.495Z,0.60
2019-01-10T22:05:23.175Z,0.50
2019-01-10T22:07:51.741Z,0.50
2019-01-10T22:10:20.343Z,0.50
2019-01-10T22:12:48.912Z,0.40
2019-01-10T22:15:17.993Z,0.40
2019-01-10T22:17:46.722Z,0.40
2019-01-10T22:20:17.392Z,0.50
2019-01-10T22:22:45.952Z,0.50
2019-01-10T22:25:14.895Z,0.60
2019-01-10T22:27:43.601Z,0.60
2019-01-10T22:30:15.352Z,0.50
2019-01-10T22:32:43.995Z,0.50
2019-01-10T22:35:15.326Z,0.40
2019-01-10T22:37:43.963Z,0.30
2019-01-10T22:40:15.171Z,0.30
2019-01-10T22:42:43.734Z,0.50
2019-01-10T22:45:13.710Z,0.50
2019-01-10T22:47:42.299Z,0.50
2019-01-10T22:50:13.979Z,0.60
2019-01-10T22:52:42.476Z,0.50
2019-01-10T22:55:12.541Z,0.50
2019-01-10T22:57:41.244Z,0.50
2019-01-10T23:00:33.874Z,0.50
2019-01-10T23:03:07.941Z,0.50
2019-01-10T23:05:44.148Z,0.50
2019-01-10T23:08:12.773Z,0.50
2019-01-10T23:10:41.483Z,0.50
2019-01-10T23:13:10.118Z,0.50
2019-01-10T23:15:38.664Z,0.60
2019-01-10T23:18:07.970Z,0.60
2019-01-10T23:20:36.730Z,0.60
2019-01-10T23:23:14.413Z,0.60
2019-01-10T23:25:43.159Z,0.60
2019-01-10T23:28:11.762Z,0.60
2019-01-10T23:30:45.535Z,0.60
2019-01-10T23:33:14.139Z,0.50
2019-01-10T23:35:42.779Z,0.50
2019-01-10T23:38:11.247Z,0.50
2019-01-10T23:40:39.879Z,0.50
2019-01-10T23:43:08.486Z,0.40
2019-01-10T23:45:36.979Z,0.40
2019-01-10T23:48:05.586Z,0.30
2019-01-10T23:50:34.146Z,0.30
2019-01-10T23:53:02.756Z,0.40
2019-01-10T23:55:31.324Z,0.40
2019-01-10T23:57:59.935Z,0.30
